Time;durP1;ratioP1;P1;durP2;ratioP2;P2;SDS_P1;SDS_P2;PMS_P1;PMS_P2;Temp;Humidity;BMP_temperature;BMP_pressure;BME280_temperature;BME280_humidity;BME280_pressure;Samples;Min_cycle;Max_cycle;Signal;HPM_P1;HPM_P2
2022/05/04 00:02:43;;;;;;;4.97;3.70;;;8.10;99.90;;;;;;8355937;28;20205;-77
2022/05/04 00:06:43;;;;;;;4.60;3.87;;;8.10;99.90;;;;;;8361271;28;20188;-77
2022/05/04 00:10:44;;;;;;;5.90;3.77;;;8.00;99.90;;;;;;8352867;28;20189;-79
2022/05/04 00:14:45;;;;;;;7.30;3.93;;;7.90;99.90;;;;;;8354601;28;20197;-77
2022/05/04 00:18:46;;;;;;;6.53;3.73;;;7.80;99.90;;;;;;8365955;28;20280;-78
2022/05/04 00:22:47;;;;;;;6.40;4.00;;;7.70;99.90;;;;;;8363819;28;20236;-77
2022/05/04 00:26:47;;;;;;;5.57;4.07;;;7.50;99.90;;;;;;8363218;28;20186;-78
2022/05/04 00:30:48;;;;;;;5.23;4.13;;;7.50;99.90;;;;;;8378657;28;20193;-78
2022/05/04 00:34:49;;;;;;;4.20;3.60;;;7.40;99.90;;;;;;8379172;28;20310;-78
2022/05/04 00:38:50;;;;;;;4.87;3.73;;;7.30;1.00;;;;;;8376241;28;20196;-78
2022/05/04 00:42:51;;;;;;;5.30;3.37;;;7.30;1.00;;;;;;8366336;28;20652;-78
2022/05/04 00:46:52;;;;;;;5.00;3.40;;;7.20;1.00;;;;;;8366098;28;20185;-78
2022/05/04 00:50:54;;;;;;;4.63;3.60;;;7.10;1.00;;;;;;8363663;28;20179;-78
2022/05/04 00:54:55;;;;;;;4.33;3.63;;;7.10;1.00;;;;;;8358392;28;20196;-78
2022/05/04 00:58:57;;;;;;;4.03;2.90;;;7.00;1.00;;;;;;8351067;28;20485;-78
2022/05/04 01:02:57;;;;;;;4.57;3.13;;;7.00;1.00;;;;;;8381563;28;20210;-78
2022/05/04 01:06:58;;;;;;;3.30;2.90;;;6.90;1.00;;;;;;8354639;28;20196;-78
2022/05/04 01:10:59;;;;;;;3.87;2.90;;;6.80;1.00;;;;;;8363099;28;20189;-79
2022/05/04 01:15:00;;;;;;;4.33;2.83;;;6.70;1.00;;;;;;8367525;28;20196;-78
2022/05/04 01:19:01;;;;;;;4.63;3.40;;;6.70;1.00;;;;;;8352904;28;20190;-78
2022/05/04 01:23:02;;;;;;;3.47;2.87;;;6.60;24.40;;;;;;8356284;28;20224;-79
2022/05/04 01:27:03;;;;;;;4.13;3.30;;;6.40;99.90;;;;;;8360176;28;20188;-78
2022/05/04 01:31:03;;;;;;;7.30;3.50;;;6.40;99.90;;;;;;8369002;28;20199;-78
2022/05/04 01:35:05;;;;;;;4.70;2.80;;;6.40;99.90;;;;;;8368729;28;20203;-80
2022/05/04 01:39:06;;;;;;;3.83;3.20;;;6.50;99.90;;;;;;8366948;28;20212;-78
2022/05/04 01:43:06;;;;;;;4.37;2.97;;;6.60;99.90;;;;;;8364821;28;20387;-80
2022/05/04 01:47:08;;;;;;;4.63;2.80;;;6.60;99.90;;;;;;8370826;28;20319;-81
2022/05/04 01:51:08;;;;;;;4.13;3.37;;;6.70;99.90;;;;;;8361952;28;20211;-78
2022/05/04 01:55:09;;;;;;;3.33;2.83;;;6.80;99.90;;;;;;8368553;28;20189;-78
2022/05/04 01:59:10;;;;;;;3.67;3.17;;;6.80;99.90;;;;;;8367684;28;20197;-80
2022/05/04 02:03:11;;;;;;;4.97;2.90;;;6.90;99.90;;;;;;8370587;28;20239;-79
2022/05/04 02:07:12;;;;;;;3.93;2.60;;;7.00;99.90;;;;;;8365787;28;20248;-78
2022/05/04 02:11:13;;;;;;;4.57;2.80;;;7.00;99.90;;;;;;8369245;28;20200;-78
2022/05/04 02:15:14;;;;;;;4.03;2.87;;;7.10;99.90;;;;;;8369132;28;20190;-79
2022/05/04 02:19:15;;;;;;;2.87;2.40;;;7.10;99.90;;;;;;8369585;28;20196;-81
2022/05/04 02:23:16;;;;;;;5.10;3.07;;;7.20;99.90;;;;;;8363945;28;20213;-78
2022/05/04 02:27:17;;;;;;;3.80;2.83;;;7.20;99.90;;;;;;8371896;28;20238;-78
2022/05/04 02:31:17;;;;;;;3.63;3.10;;;7.20;99.90;;;;;;8358114;28;20193;-78
2022/05/04 02:39:37;;;;;;;3.60;3.00;;;7.30;99.90;;;;;;8378779;28;20285;-79
2022/05/04 02:43:38;;;;;;;4.00;2.70;;;7.30;99.90;;;;;;8362838;28;20221;-78
2022/05/04 02:47:40;;;;;;;3.40;2.90;;;7.20;99.90;;;;;;8363712;28;20270;-78
2022/05/04 02:51:41;;;;;;;3.17;2.60;;;7.20;99.90;;;;;;8366238;28;20210;-77
2022/05/04 02:55:41;;;;;;;3.20;2.70;;;7.10;99.90;;;;;;8361921;28;20185;-79
2022/05/04 02:59:42;;;;;;;4.20;3.10;;;7.00;99.90;;;;;;8366222;28;20185;-78
2022/05/04 03:03:43;;;;;;;3.93;3.07;;;6.80;1.00;;;;;;8361005;28;20252;-78
2022/05/04 03:07:44;;;;;;;3.33;2.60;;;6.70;1.00;;;;;;8364556;28;20185;-79
2022/05/04 03:11:57;;;;;;;3.03;2.73;;;6.60;53.80;;;;;;8361013;28;20193;-78
2022/05/04 03:15:58;;;;;;;3.30;2.67;;;6.50;99.90;;;;;;8354860;28;20272;-79
2022/05/04 03:19:59;;;;;;;4.60;2.93;;;6.40;99.90;;;;;;8359820;28;20296;-78
2022/05/04 03:24:01;;;;;;;3.30;2.97;;;6.30;1.00;;;;;;8375216;28;20213;-77
2022/05/04 03:28:02;;;;;;;5.07;3.63;;;6.30;99.90;;;;;;8357541;28;20189;-78
2022/05/04 03:32:03;;;;;;;3.97;2.93;;;6.30;99.90;;;;;;8362472;28;20197;-78
2022/05/04 03:36:04;;;;;;;17.63;11.53;;;6.30;99.90;;;;;;8364986;28;20233;-79
2022/05/04 03:40:05;;;;;;;49.03;18.13;;;6.40;1.00;;;;;;8361582;28;20291;-78
2022/05/04 03:44:07;;;;;;;38.67;15.23;;;6.40;1.00;;;;;;8360709;28;20196;-79
2022/05/04 03:48:08;;;;;;;25.33;11.67;;;6.40;1.00;;;;;;8363382;28;20181;-78
2022/05/04 03:52:09;;;;;;;9.50;5.63;;;6.50;99.90;;;;;;8363718;28;20267;-78
2022/05/04 03:56:10;;;;;;;6.50;4.23;;;6.50;99.90;;;;;;8363291;28;20310;-78
2022/05/04 04:00:11;;;;;;;33.37;10.63;;;6.60;99.90;;;;;;8369284;28;20239;-78
2022/05/04 04:04:12;;;;;;;32.60;10.70;;;6.70;99.90;;;;;;8362998;28;20181;-78
2022/05/04 04:08:13;;;;;;;7.30;4.43;;;6.80;99.90;;;;;;8358958;28;20272;-78
2022/05/04 04:12:14;;;;;;;5.10;3.70;;;6.90;99.90;;;;;;8362443;28;20192;-79
2022/05/04 04:16:16;;;;;;;4.43;2.97;;;7.10;99.90;;;;;;8356350;28;20239;-78
2022/05/04 04:24:36;;;;;;;3.10;2.47;;;7.30;99.90;;;;;;8380094;28;20294;-78
2022/05/04 04:28:39;;;;;;;4.20;2.73;;;7.50;70.40;;;;;;8362335;28;20177;-78
2022/05/04 04:32:40;;;;;;;4.77;3.20;;;7.70;1.00;;;;;;8362176;28;20273;-79
2022/05/04 04:36:43;;;;;;;3.90;3.10;;;7.80;1.00;;;;;;8365294;28;20189;-79
2022/05/04 04:40:43;;;;;;;5.60;3.10;;;8.00;1.00;;;;;;8361462;28;20204;-79
2022/05/04 04:44:44;;;;;;;4.53;3.40;;;8.30;99.90;;;;;;8356479;28;20258;-79
2022/05/04 04:48:45;;;;;;;6.50;3.30;;;8.60;64.40;;;;;;8366823;28;20177;-78
2022/05/04 04:52:46;;;;;;;4.90;3.37;;;8.90;1.00;;;;;;8361675;28;20193;-78
2022/05/04 04:56:47;;;;;;;4.53;3.37;;;9.20;1.00;;;;;;8365534;28;20199;-80
2022/05/04 05:00:48;;;;;;;4.37;3.37;;;9.50;1.00;;;;;;8356753;28;20208;-80
2022/05/04 05:04:49;;;;;;;4.60;3.50;;;9.50;99.90;;;;;;8362096;28;20185;-79
2022/05/04 05:08:50;;;;;;;6.63;3.93;;;9.60;99.90;;;;;;8372281;28;20258;-79
2022/05/04 05:12:51;;;;;;;11.40;7.63;;;9.80;99.90;;;;;;8367319;28;20200;-80
2022/05/04 05:16:52;;;;;;;9.47;6.30;;;9.60;99.90;;;;;;8361112;28;20189;-80
2022/05/04 05:20:53;;;;;;;9.17;6.13;;;9.40;99.90;;;;;;8368432;28;20219;-79
2022/05/04 05:24:54;;;;;;;8.37;6.20;;;9.30;99.90;;;;;;8366108;28;21586;-79
2022/05/04 05:28:54;;;;;;;6.17;4.87;;;9.40;99.90;;;;;;8372269;28;20200;-78
2022/05/04 05:32:55;;;;;;;6.33;4.77;;;9.70;99.90;;;;;;8368458;28;20186;-79
2022/05/04 05:36:56;;;;;;;6.87;5.00;;;10.00;1.00;;;;;;8363660;28;20189;-79
2022/05/04 05:40:57;;;;;;;6.03;4.90;;;10.30;1.00;;;;;;8361063;28;20223;-80
2022/05/04 05:44:58;;;;;;;5.60;4.27;;;10.70;1.00;;;;;;8375544;28;20276;-79
2022/05/04 05:48:59;;;;;;;4.83;4.33;;;11.20;99.90;;;;;;8367720;28;20177;-80
2022/05/04 05:53:01;;;;;;;5.90;4.30;;;11.70;99.90;;;;;;8371226;28;20275;-78
2022/05/04 05:57:01;;;;;;;5.07;4.20;;;11.90;99.90;;;;;;8394333;28;20233;-79
2022/05/04 06:01:02;;;;;;;6.97;3.93;;;12.10;54.60;;;;;;8407800;28;20500;-79
2022/05/04 06:05:04;;;;;;;5.80;4.27;;;12.30;1.00;;;;;;8395261;28;20222;-78
2022/05/04 06:09:05;;;;;;;4.40;3.77;;;12.40;1.00;;;;;;8412539;28;20275;-80
2022/05/04 06:13:06;;;;;;;4.27;3.87;;;12.40;1.00;;;;;;8397978;28;20225;-79
2022/05/04 06:17:07;;;;;;;5.07;4.23;;;12.60;1.00;;;;;;8397170;28;20208;-81
2022/05/04 06:21:08;;;;;;;4.70;3.70;;;12.60;1.00;;;;;;8399062;28;20226;-79
2022/05/04 06:25:09;;;;;;;4.10;3.33;;;12.80;1.00;;;;;;8403855;28;20191;-80
2022/05/04 06:29:09;;;;;;;8.37;4.50;;;13.00;99.90;;;;;;8405316;28;20574;-80
2022/05/04 06:37:30;;;;;;;6.10;5.10;;;13.20;99.90;;;;;;8408757;28;20330;-79
2022/05/04 06:41:30;;;;;;;4.03;3.60;;;13.50;99.90;;;;;;8382900;28;20220;-81
2022/05/04 06:45:32;;;;;;;6.17;3.80;;;13.70;99.90;;;;;;8397323;28;20231;-80
2022/05/04 06:49:32;;;;;;;8.27;5.07;;;13.90;99.90;;;;;;8400103;28;20338;-80
2022/05/04 06:53:34;;;;;;;8.07;5.33;;;14.00;99.90;;;;;;8396561;28;20279;-80
2022/05/04 06:57:38;;;;;;;10.47;5.70;;;14.10;99.90;;;;;;8387600;28;20199;-81
2022/05/04 07:01:38;;;;;;;10.20;5.57;;;14.20;99.90;;;;;;8388147;28;20213;-81
2022/05/04 07:05:39;;;;;;;10.57;6.70;;;14.10;99.90;;;;;;8406821;28;20190;-80
2022/05/04 07:09:40;;;;;;;8.57;5.97;;;14.00;99.90;;;;;;8391792;28;20224;-80
2022/05/04 07:13:43;;;;;;;7.37;5.60;;;14.10;99.90;;;;;;8393108;28;20199;-79
2022/05/04 07:17:43;;;;;;;9.37;5.50;;;14.30;99.90;;;;;;8394067;28;20196;-80
2022/05/04 07:21:45;;;;;;;5.70;4.17;;;14.50;99.90;;;;;;8392485;28;20217;-81
2022/05/04 07:25:46;;;;;;;9.20;5.47;;;14.70;99.90;;;;;;8384835;28;20219;-80
2022/05/04 07:29:47;;;;;;;5.53;4.27;;;14.90;99.90;;;;;;8384136;28;20197;-80
2022/05/04 07:33:48;;;;;;;7.27;5.00;;;15.00;99.90;;;;;;8414191;28;20196;-79
2022/05/04 07:37:49;;;;;;;8.10;4.77;;;15.30;99.90;;;;;;8397615;28;20216;-81
2022/05/04 07:46:09;;;;;;;7.57;5.07;;;15.50;99.90;;;;;;8412961;28;20196;-81
2022/05/04 07:50:14;;;;;;;7.30;5.17;;;15.70;94.40;;;;;;8395345;28;20216;-81
2022/05/04 07:54:15;;;;;;;6.73;4.53;;;15.90;63.30;;;;;;8396782;28;20228;-81
2022/05/04 07:58:15;;;;;;;5.47;3.97;;;16.20;22.90;;;;;;8392964;28;20199;-79
2022/05/04 08:06:35;;;;;;;6.43;3.87;;;16.50;10.20;;;;;;8403815;28;20275;-79
2022/05/04 08:10:36;;;;;;;7.13;3.93;;;16.80;2.60;;;;;;8385427;28;20206;-78
2022/05/04 08:14:40;;;;;;;4.77;3.57;;;17.00;1.00;;;;;;8389722;28;20197;-78
2022/05/04 08:18:41;;;;;;;7.57;3.73;;;17.30;1.00;;;;;;8402025;28;20186;-80
2022/05/04 08:22:41;;;;;;;4.20;2.97;;;17.40;1.00;;;;;;8394330;28;20212;-78
2022/05/04 08:26:43;;;;;;;5.07;3.33;;;17.60;1.00;;;;;;8394117;28;20192;-78
2022/05/04 08:30:43;;;;;;;7.30;2.37;;;17.70;1.00;;;;;;8404845;28;20231;-78
2022/05/04 08:34:44;;;;;;;5.83;2.63;;;17.80;1.00;;;;;;8402060;28;20208;-78
2022/05/04 08:38:45;;;;;;;9.53;3.00;;;18.00;1.00;;;;;;8399006;28;20263;-77
2022/05/04 08:42:46;;;;;;;3.13;2.00;;;18.10;1.00;;;;;;8403161;28;20216;-78
2022/05/04 08:46:48;;;;;;;5.90;2.07;;;18.40;1.00;;;;;;8394992;28;20192;-79
2022/05/04 08:50:50;;;;;;;4.90;1.70;;;18.70;1.00;;;;;;8407902;28;20196;-78
2022/05/04 08:54:53;;;;;;;2.03;1.10;;;18.90;1.00;;;;;;8399689;28;20197;-78
2022/05/04 08:58:54;;;;;;;3.07;2.13;;;19.20;1.00;;;;;;8398135;28;20243;-78
2022/05/04 09:02:55;;;;;;;2.33;1.87;;;19.00;1.00;;;;;;8379562;28;20212;-78
2022/05/04 09:06:56;;;;;;;3.53;2.07;;;19.20;1.00;;;;;;8395380;28;20181;-79
2022/05/04 09:10:59;;;;;;;2.90;1.90;;;19.40;1.00;;;;;;8392766;28;20237;-78
2022/05/04 09:15:00;;;;;;;2.97;1.70;;;19.60;1.00;;;;;;8401064;28;20184;-78
2022/05/04 09:19:09;;;;;;;6.73;2.13;;;19.80;1.00;;;;;;8385279;28;20224;-78
2022/05/04 09:23:16;;;;;;;2.83;1.90;;;20.30;1.00;;;;;;8391720;28;20220;-78
2022/05/04 09:27:17;;;;;;;2.67;1.60;;;20.90;1.00;;;;;;8390340;28;20216;-79
2022/05/04 09:31:23;;;;;;;2.40;1.60;;;21.50;1.00;;;;;;8400660;28;20235;-79
2022/05/04 09:35:23;;;;;;;2.60;1.80;;;22.40;1.00;;;;;;8403067;28;20193;-79
2022/05/04 09:48:05;;;;;;;1.80;1.57;;;22.90;1.00;;;;;;8416286;28;20187;-80
2022/05/04 09:52:06;;;;;;;2.87;1.87;;;23.10;1.00;;;;;;8386377;28;20189;-79
2022/05/04 09:56:09;;;;;;;3.07;1.90;;;22.80;1.00;;;;;;8397692;28;20189;-80
2022/05/04 10:00:12;;;;;;;2.40;1.47;;;22.60;1.00;;;;;;8396104;28;20231;-78
2022/05/04 10:04:13;;;;;;;3.07;1.40;;;22.00;1.00;;;;;;8397635;28;20220;-79
2022/05/04 10:08:14;;;;;;;2.23;1.60;;;21.80;1.00;;;;;;8413551;28;20263;-79
2022/05/04 10:12:15;;;;;;;3.40;1.80;;;21.70;1.00;;;;;;8397494;28;20505;-78
2022/05/04 10:16:16;;;;;;;3.17;1.90;;;21.50;1.00;;;;;;8403480;28;20188;-78
2022/05/04 10:20:20;;;;;;;1.80;1.60;;;20.80;1.00;;;;;;8418836;28;20227;-78
2022/05/04 10:24:22;;;;;;;2.20;2.00;;;21.00;1.00;;;;;;8407743;28;20283;-79
2022/05/04 10:28:24;;;;;;;2.60;1.83;;;20.90;1.00;;;;;;8403775;28;20188;-78
2022/05/04 10:32:36;;;;;;;3.63;2.00;;;20.90;1.00;;;;;;8402247;28;20199;-79
2022/05/04 10:36:38;;;;;;;5.27;1.70;;;20.90;1.00;;;;;;8394467;28;20189;-79
2022/05/04 10:40:54;;;;;;;3.87;1.80;;;21.20;1.00;;;;;;8402688;28;20216;-79
2022/05/04 10:44:56;;;;;;;2.00;1.50;;;21.60;1.00;;;;;;8404301;28;20188;-79
2022/05/04 10:48:59;;;;;;;1.70;1.53;;;21.90;1.00;;;;;;8405051;28;20216;-78
2022/05/04 10:53:00;;;;;;;2.37;1.97;;;21.90;1.00;;;;;;8401716;28;20235;-79
2022/05/04 10:57:01;;;;;;;2.30;1.67;;;21.20;1.00;;;;;;8386350;28;20192;-80
2022/05/04 11:01:20;;;;;;;2.43;2.00;;;20.60;1.00;;;;;;8394971;28;20215;-78
2022/05/04 11:05:20;;;;;;;4.03;1.73;;;20.50;1.00;;;;;;8394567;28;20287;-79
2022/05/04 11:09:29;;;;;;;1.87;1.43;;;20.90;1.00;;;;;;8403111;28;20188;-79
2022/05/04 11:13:31;;;;;;;1.93;1.40;;;21.50;1.00;;;;;;8399958;28;20194;-80
2022/05/04 11:17:33;;;;;;;3.93;1.33;;;21.50;1.00;;;;;;8389342;28;20196;-78
2022/05/04 11:21:37;;;;;;;3.23;1.80;;;21.40;1.00;;;;;;8392719;28;20312;-80
2022/05/04 11:25:38;;;;;;;2.43;1.90;;;21.30;1.00;;;;;;8407472;28;20219;-79
2022/05/04 11:29:38;;;;;;;1.67;1.30;;;21.40;1.00;;;;;;8394335;28;20184;-79
2022/05/04 11:33:44;;;;;;;2.00;1.47;;;21.20;1.00;;;;;;8386540;28;20185;-78
2022/05/04 11:37:45;;;;;;;1.53;1.33;;;21.20;1.00;;;;;;8392579;28;20189;-80
2022/05/04 11:41:55;;;;;;;2.40;1.40;;;21.20;1.00;;;;;;8390176;28;20220;-80
2022/05/04 11:45:56;;;;;;;3.60;1.73;;;21.60;1.00;;;;;;8388332;28;20185;-78
2022/05/04 11:49:57;;;;;;;1.20;1.10;;;22.10;1.00;;;;;;8393390;28;20327;-80
2022/05/04 11:53:58;;;;;;;1.27;1.10;;;22.50;1.00;;;;;;8400836;28;20196;-79
2022/05/04 11:57:59;;;;;;;1.70;1.40;;;23.20;1.00;;;;;;8395285;28;20272;-78
2022/05/04 12:02:00;;;;;;;6.47;1.80;;;23.90;1.00;;;;;;8392598;28;20299;-79
2022/05/04 12:06:04;;;;;;;2.07;1.60;;;24.10;1.00;;;;;;8388191;28;20181;-80
2022/05/04 12:10:05;;;;;;;3.13;1.50;;;24.60;1.00;;;;;;8399771;28;20181;-78
2022/05/04 12:14:06;;;;;;;2.47;1.87;;;24.00;1.00;;;;;;8398588;28;20173;-79
2022/05/04 12:18:07;;;;;;;1.80;1.50;;;23.50;1.00;;;;;;8396113;28;20185;-80
2022/05/04 12:22:08;;;;;;;3.37;1.50;;;23.00;1.00;;;;;;8394862;28;20208;-80
2022/05/04 12:26:12;;;;;;;2.27;1.33;;;22.10;1.00;;;;;;8386330;28;20201;-79
2022/05/04 12:34:32;;;;;;;2.77;1.40;;;21.50;1.00;;;;;;8402578;28;20280;-81
2022/05/04 12:38:35;;;;;;;3.73;2.13;;;21.50;1.00;;;;;;8400734;28;20285;-80
2022/05/04 12:42:37;;;;;;;2.30;1.80;;;21.40;1.00;;;;;;8398511;28;20223;-78
2022/05/04 12:46:38;;;;;;;1.73;1.20;;;21.20;1.00;;;;;;8396558;28;20191;-79
2022/05/04 12:50:39;;;;;;;2.00;1.40;;;21.20;1.00;;;;;;8393309;28;20184;-79
2022/05/04 12:54:40;;;;;;;1.80;1.67;;;21.10;1.00;;;;;;8397082;28;20241;-79
2022/05/04 12:58:41;;;;;;;2.40;1.90;;;21.00;1.00;;;;;;8409927;28;20185;-78
2022/05/04 13:02:45;;;;;;;3.57;1.60;;;21.10;1.00;;;;;;8407581;28;20269;-81
2022/05/04 13:06:46;;;;;;;1.63;1.50;;;21.20;1.00;;;;;;8394596;28;20232;-79
2022/05/04 13:10:48;;;;;;;2.00;1.40;;;21.70;1.00;;;;;;8395891;28;20193;-80
2022/05/04 13:14:49;;;;;;;2.50;1.50;;;22.30;1.00;;;;;;8415216;28;20513;-79
2022/05/04 13:18:49;;;;;;;1.97;1.53;;;22.60;1.00;;;;;;8392966;28;20193;-78
2022/05/04 13:22:50;;;;;;;3.47;1.40;;;22.80;1.00;;;;;;8405074;28;20278;-79
2022/05/04 13:26:51;;;;;;;3.27;1.50;;;22.80;1.00;;;;;;8393985;28;20180;-79
2022/05/04 13:30:52;;;;;;;2.63;1.40;;;22.60;1.00;;;;;;8402703;28;20199;-79
2022/05/04 13:34:53;;;;;;;1.57;1.30;;;22.70;1.00;;;;;;8402200;28;20192;-79
2022/05/04 13:38:54;;;;;;;2.10;1.60;;;23.00;1.00;;;;;;8401193;28;20212;-80
2022/05/04 13:42:55;;;;;;;4.53;1.40;;;23.10;1.00;;;;;;8397941;28;20224;-79
2022/05/04 13:46:56;;;;;;;2.17;1.30;;;22.70;1.00;;;;;;8396969;28;20188;-79
2022/05/04 13:55:16;;;;;;;4.60;1.40;;;22.80;1.00;;;;;;8401183;28;20242;-81
2022/05/04 13:59:17;;;;;;;1.90;1.20;;;22.70;1.00;;;;;;8396529;28;20189;-79
2022/05/04 14:03:19;;;;;;;2.23;1.90;;;22.50;1.00;;;;;;8409708;28;20213;-80
2022/05/04 14:07:20;;;;;;;2.30;1.60;;;22.40;1.00;;;;;;8395425;28;20250;-80
2022/05/04 14:11:22;;;;;;;2.73;1.50;;;22.10;1.00;;;;;;8385781;28;20204;-79
2022/05/04 14:15:23;;;;;;;2.77;1.80;;;21.90;1.00;;;;;;8392724;28;20192;-79
2022/05/04 14:19:24;;;;;;;2.20;1.57;;;21.80;1.00;;;;;;8399692;28;20185;-79
2022/05/04 14:23:25;;;;;;;3.00;1.47;;;21.80;1.00;;;;;;8393546;28;20216;-79
2022/05/04 14:27:27;;;;;;;2.30;1.50;;;21.50;1.00;;;;;;8391706;28;20299;-79
2022/05/04 14:31:28;;;;;;;2.70;1.20;;;21.60;1.00;;;;;;8393448;28;20185;-79
2022/05/04 14:35:29;;;;;;;1.50;1.37;;;21.90;1.00;;;;;;8398715;28;20247;-80
2022/05/04 14:39:30;;;;;;;1.40;1.20;;;22.20;1.00;;;;;;8394407;28;20209;-78
2022/05/04 14:43:30;;;;;;;2.10;1.30;;;21.90;1.00;;;;;;8399139;28;20211;-80
2022/05/04 14:47:31;;;;;;;1.73;1.50;;;21.60;1.00;;;;;;8398839;28;20275;-80
2022/05/04 14:51:33;;;;;;;1.67;1.03;;;21.30;1.00;;;;;;8384934;28;20200;-78
2022/05/04 14:55:33;;;;;;;1.63;1.43;;;21.40;1.00;;;;;;8385276;28;20204;-77
2022/05/04 14:59:34;;;;;;;6.40;2.97;;;21.60;1.00;;;;;;8390446;28;20223;-80
2022/05/04 15:07:55;;;;;;;3.40;1.20;;;22.20;1.00;;;;;;8407709;28;20195;-79
2022/05/04 15:11:57;;;;;;;2.80;1.40;;;22.40;1.00;;;;;;8395055;28;20287;-79
2022/05/04 15:15:58;;;;;;;4.13;1.80;;;22.50;1.00;;;;;;8392379;28;20193;-78
2022/05/04 15:19:58;;;;;;;3.00;1.60;;;22.60;1.00;;;;;;8390886;28;20188;-77
2022/05/04 15:23:59;;;;;;;1.80;1.40;;;22.60;1.00;;;;;;8391587;28;20269;-78
2022/05/04 15:28:00;;;;;;;3.13;1.60;;;22.70;1.00;;;;;;8401355;28;20194;-78
2022/05/04 15:32:01;;;;;;;2.57;1.67;;;22.70;1.00;;;;;;8393808;28;20206;-78
2022/05/04 15:36:03;;;;;;;4.83;1.40;;;22.30;1.00;;;;;;8389175;28;20271;-78
2022/05/04 15:40:05;;;;;;;3.27;1.47;;;22.00;1.00;;;;;;8391035;28;20234;-78
2022/05/04 15:44:07;;;;;;;1.67;1.30;;;22.00;1.00;;;;;;8398018;28;20282;-77
2022/05/04 15:48:08;;;;;;;1.90;1.53;;;22.00;1.00;;;;;;8401128;28;20192;-78
2022/05/04 15:52:09;;;;;;;4.73;2.27;;;22.20;1.00;;;;;;8401424;28;20192;-77
2022/05/04 15:56:10;;;;;;;2.40;1.83;;;22.30;1.00;;;;;;8411852;28;20205;-78
2022/05/04 16:00:12;;;;;;;4.37;1.80;;;22.30;1.00;;;;;;8414443;28;20196;-78
2022/05/04 16:04:13;;;;;;;5.53;2.30;;;22.20;1.00;;;;;;8394148;28;20235;-79
2022/05/04 16:08:15;;;;;;;2.00;1.70;;;21.90;1.00;;;;;;8413718;28;20211;-78
2022/05/04 16:12:15;;;;;;;3.73;1.40;;;21.60;1.00;;;;;;8403514;28;20283;-77
2022/05/04 16:16:17;;;;;;;1.70;1.60;;;21.50;1.00;;;;;;8399094;28;20191;-78
2022/05/04 16:24:37;;;;;;;1.50;1.40;;;21.00;1.00;;;;;;8415142;28;20470;-78
2022/05/04 16:28:39;;;;;;;9.87;5.00;;;20.80;1.00;;;;;;8400192;28;20658;-78
2022/05/04 16:32:40;;;;;;;19.33;11.60;;;20.60;1.00;;;;;;8393752;28;20208;-78
2022/05/04 16:36:41;;;;;;;5.20;3.40;;;20.60;1.00;;;;;;8393146;28;20244;-78
2022/05/04 16:40:42;;;;;;;8.10;2.40;;;20.60;1.00;;;;;;8393566;28;20310;-78
2022/05/04 16:44:42;;;;;;;5.37;3.90;;;20.60;1.00;;;;;;8391977;28;20229;-77
2022/05/04 16:48:43;;;;;;;3.93;3.27;;;20.60;1.00;;;;;;8394535;28;20193;-79
2022/05/04 16:52:47;;;;;;;6.83;3.57;;;20.60;1.00;;;;;;8385367;28;20189;-78
2022/05/04 16:56:48;;;;;;;4.90;3.20;;;20.50;1.00;;;;;;8394226;28;20243;-79
2022/05/04 17:00:49;;;;;;;3.93;2.70;;;20.30;1.00;;;;;;8399619;28;20200;-79
2022/05/04 17:04:49;;;;;;;4.57;2.63;;;20.10;1.00;;;;;;8402546;28;20188;-80
2022/05/04 17:08:50;;;;;;;3.50;2.33;;;20.00;1.00;;;;;;8416627;28;20195;-78
2022/05/04 17:12:51;;;;;;;8.03;3.10;;;19.90;1.00;;;;;;8402140;28;20191;-79
2022/05/04 17:16:52;;;;;;;4.77;2.60;;;19.70;1.00;;;;;;8402825;28;20226;-80
2022/05/04 17:20:53;;;;;;;4.83;3.87;;;19.70;1.00;;;;;;8394775;28;20298;-79
2022/05/04 17:24:54;;;;;;;6.20;3.30;;;19.50;1.00;;;;;;8395989;28;20239;-78
2022/05/04 17:28:55;;;;;;;5.03;2.90;;;19.30;1.00;;;;;;8401567;28;20204;-78
2022/05/04 17:37:15;;;;;;;6.20;3.47;;;19.30;1.00;;;;;;8414465;28;20325;-78
2022/05/04 17:41:16;;;;;;;8.07;3.80;;;19.60;1.00;;;;;;8402243;28;20212;-79
2022/05/04 17:45:17;;;;;;;6.20;3.43;;;19.90;1.00;;;;;;8395527;28;20242;-79
2022/05/04 17:49:18;;;;;;;5.23;3.87;;;20.10;1.00;;;;;;8397870;28;20303;-79
2022/05/04 17:53:18;;;;;;;7.40;4.00;;;20.30;1.00;;;;;;8402006;28;20192;-79
2022/05/04 17:57:19;;;;;;;6.17;3.37;;;20.30;1.00;;;;;;8398709;28;20192;-79
2022/05/04 18:03:33;;;;;;;4.63;3.03;;;20.10;1.00;;;;;;8417964;28;20200;-78
2022/05/04 18:05:42;;;;;;;3.27;2.43;;;19.80;1.00;;;;;;8412651;28;20610;-78
2022/05/04 18:09:42;;;;;;;2.03;1.80;;;19.50;1.00;;;;;;8392360;28;20241;-77
2022/05/04 18:13:43;;;;;;;2.93;2.07;;;18.90;1.00;;;;;;8404902;28;20293;-78
2022/05/04 18:17:44;;;;;;;2.20;1.90;;;18.20;1.00;;;;;;8396690;28;20196;-79
2022/05/04 18:21:45;;;;;;;2.67;1.77;;;17.40;43.70;;;;;;8392684;28;20230;-80
2022/05/04 18:25:47;;;;;;;2.10;1.77;;;16.70;99.90;;;;;;8393500;28;20190;-81
2022/05/04 18:29:48;;;;;;;2.27;1.77;;;16.20;99.90;;;;;;8392799;28;20177;-80
2022/05/04 18:33:49;;;;;;;2.17;1.40;;;15.70;99.90;;;;;;8397189;28;20195;-81
2022/05/04 18:37:50;;;;;;;1.53;1.43;;;15.20;99.90;;;;;;8391903;28;20189;-81
2022/05/04 18:41:51;;;;;;;1.80;1.43;;;14.80;99.90;;;;;;8410017;28;20272;-80
2022/05/04 18:45:52;;;;;;;1.80;1.70;;;14.50;99.90;;;;;;8414903;28;20529;-81
2022/05/04 18:49:52;;;;;;;1.63;1.53;;;14.10;99.90;;;;;;8399749;28;20187;-80
2022/05/04 18:53:54;;;;;;;2.10;1.67;;;13.80;99.90;;;;;;8394503;28;20217;-80
2022/05/04 18:57:54;;;;;;;1.73;1.50;;;13.60;99.90;;;;;;8394774;28;20200;-80
2022/05/04 19:01:55;;;;;;;2.70;1.60;;;13.30;99.90;;;;;;8394440;28;20208;-80
2022/05/04 19:05:58;;;;;;;1.90;1.60;;;13.20;99.90;;;;;;8392242;28;20192;-80
2022/05/04 19:09:59;;;;;;;2.17;1.80;;;13.00;99.90;;;;;;8395478;28;20181;-79
2022/05/04 19:14:00;;;;;;;2.40;2.20;;;12.80;99.90;;;;;;8402878;28;20183;-79
2022/05/04 19:18:03;;;;;;;2.67;2.47;;;12.50;1.00;;;;;;8411056;28;20269;-79
2022/05/04 19:22:04;;;;;;;7.63;6.83;;;12.30;1.00;;;;;;8388825;28;20214;-80
2022/05/04 19:26:04;;;;;;;10.13;8.10;;;12.20;1.00;;;;;;8386183;28;20199;-80
2022/05/04 19:30:06;;;;;;;6.57;5.73;;;12.00;1.00;;;;;;8396888;28;20182;-80
2022/05/04 19:34:07;;;;;;;4.50;4.07;;;11.90;1.00;;;;;;8410331;28;20212;-80
2022/05/04 19:38:08;;;;;;;3.10;2.80;;;11.70;1.00;;;;;;8388817;28;20197;-80
2022/05/04 19:42:09;;;;;;;2.47;2.23;;;11.50;1.00;;;;;;8405616;28;20199;-80
2022/05/04 19:46:10;;;;;;;1.83;1.70;;;11.30;1.00;;;;;;8403652;28;20218;-81
2022/05/04 19:50:12;;;;;;;2.37;1.83;;;11.20;17.30;;;;;;8394396;28;20226;-84
2022/05/04 19:54:12;;;;;;;2.33;1.90;;;11.00;60.10;;;;;;8394423;28;20180;-81
2022/05/04 19:58:13;;;;;;;2.37;2.17;;;10.80;95.50;;;;;;8381949;28;20180;-81
2022/05/04 20:02:15;;;;;;;2.07;1.80;;;10.70;97.50;;;;;;8391756;28;20243;-82
2022/05/04 20:06:16;;;;;;;3.60;2.20;;;10.60;90.90;;;;;;8386050;28;20193;-81
2022/05/04 20:10:17;;;;;;;2.57;2.17;;;10.50;91.20;;;;;;8388391;28;20180;-80
2022/05/04 20:14:18;;;;;;;2.93;1.90;;;10.40;99.90;;;;;;8398531;28;20256;-80
2022/05/04 20:18:19;;;;;;;2.60;2.20;;;10.30;99.90;;;;;;8391576;28;20199;-81
2022/05/04 20:22:20;;;;;;;2.33;1.80;;;10.20;99.90;;;;;;8392682;28;20209;-80
2022/05/04 20:26:21;;;;;;;3.50;2.40;;;10.10;99.90;;;;;;8388024;28;20258;-80
2022/05/04 20:30:22;;;;;;;2.30;2.07;;;10.00;99.90;;;;;;8385353;28;20606;-80
2022/05/04 20:34:23;;;;;;;2.00;1.80;;;9.90;99.90;;;;;;8390550;28;20184;-80
2022/05/04 20:42:44;;;;;;;2.20;2.00;;;9.60;99.90;;;;;;8397470;28;20250;-80
2022/05/04 20:46:45;;;;;;;2.40;1.83;;;9.40;99.90;;;;;;8377974;28;20275;-80
2022/05/04 20:55:05;;;;;;;3.03;2.13;;;9.20;99.90;;;;;;8402092;28;20482;-79
2022/05/04 20:59:09;;;;;;;2.60;2.17;;;9.10;99.90;;;;;;8386701;28;20192;-80
2022/05/04 21:03:09;;;;;;;3.23;2.30;;;9.00;99.90;;;;;;8394202;28;20212;-80
2022/05/04 21:07:10;;;;;;;4.27;2.90;;;8.90;99.90;;;;;;8401920;28;20607;-80
2022/05/04 21:11:11;;;;;;;5.47;4.17;;;8.80;1.00;;;;;;8385726;28;20223;-81
2022/05/04 21:15:13;;;;;;;11.10;6.10;;;8.80;1.00;;;;;;8390238;28;20208;-80
2022/05/04 21:19:14;;;;;;;11.87;5.93;;;8.70;1.00;;;;;;8392468;28;20200;-80
2022/05/04 21:23:15;;;;;;;9.30;4.87;;;8.70;1.00;;;;;;8410461;28;20215;-80
2022/05/04 21:27:17;;;;;;;5.23;3.50;;;8.60;1.00;;;;;;8409681;28;20198;-80
2022/05/04 21:31:18;;;;;;;4.17;3.13;;;8.40;1.00;;;;;;8396166;28;20220;-80
2022/05/04 21:35:19;;;;;;;4.17;2.93;;;8.30;1.00;;;;;;8403374;28;20196;-80
2022/05/04 21:39:20;;;;;;;3.67;3.00;;;8.20;1.00;;;;;;8388962;28;20250;-81
2022/05/04 21:43:21;;;;;;;3.77;3.37;;;8.20;40.50;;;;;;8406176;28;20213;-80
2022/05/04 21:47:22;;;;;;;5.63;4.10;;;8.20;99.90;;;;;;8405842;28;20184;-81
2022/05/04 21:51:24;;;;;;;5.67;3.83;;;8.20;99.90;;;;;;8403297;28;20287;-80
2022/05/04 21:55:25;;;;;;;5.10;3.53;;;8.10;99.90;;;;;;8403446;28;20284;-80
2022/05/04 21:59:26;;;;;;;3.60;2.80;;;8.00;99.90;;;;;;8417504;28;20188;-80
2022/05/04 22:03:28;;;;;;;5.60;3.53;;;7.90;99.90;;;;;;8404414;28;20219;-81
2022/05/04 22:07:29;;;;;;;6.33;3.83;;;7.80;99.90;;;;;;8395679;28;20227;-80
2022/05/04 22:15:49;;;;;;;5.70;3.90;;;7.70;99.90;;;;;;8417073;28;20201;-80